Time;durP1;ratioP1;P1;durP2;ratioP2;P2;SDS_P1;SDS_P2;PMS_P1;PMS_P2;Temp;Humidity;BMP_temperature;BMP_pressure;BME280_temperature;BME280_humidity;BME280_pressure;Samples;Min_cycle;Max_cycle;Signal;HPM_P1;HPM_P2
2023/08/22 00:01:25;;;;;;;;;;;;;;;;;;4933112;28;19910;-91
2023/08/22 00:03:56;;;;;;;;;;;;;;;;;;4930842;28;19915;-92
2023/08/22 00:06:22;;;;;;;;;;;;;;;;;;4936935;28;19914;-90
2023/08/22 00:08:48;;;;;;;;;;;;;;;;;;4935998;28;19938;-90
2023/08/22 00:11:14;;;;;;;;;;;;;;;;;;4934752;28;19911;-89
2023/08/22 00:13:40;;;;;;;;;;;;;;;;;;4940278;28;19976;-88
2023/08/22 00:16:06;;;;;;;;;;;;;;;;;;4932299;28;19910;-89
2023/08/22 00:18:32;;;;;;;;;;;;;;;;;;4937635;28;19914;-89
2023/08/22 00:20:58;;;;;;;;;;;;;;;;;;4934814;29;19911;-89
2023/08/22 00:23:24;;;;;;;;;;;;;;;;;;4934940;29;19914;-89
2023/08/22 00:25:51;;;;;;;;;;;;;;;;;;4935260;28;19914;-90
2023/08/22 00:28:17;;;;;;;;;;;;;;;;;;4943582;28;19920;-89
2023/08/22 00:30:45;;;;;;;;;;;;;;;;;;4936391;28;20380;-88
2023/08/22 00:33:17;;;;;;;;;;;;;;;;;;4942647;29;19918;-88
2023/08/22 00:35:43;;;;;;;;;;;;;;;;;;4940948;28;19910;-89
2023/08/22 00:38:09;;;;;;;;;;;;;;;;;;4940067;28;20041;-88
2023/08/22 00:40:35;;;;;;;;;;;;;;;;;;4933272;28;20374;-89
2023/08/22 00:43:01;;;;;;;;;;;;;;;;;;4934658;28;19985;-90
2023/08/22 00:45:27;;;;;;;;;;;;;;;;;;4935957;29;19938;-89
2023/08/22 00:47:58;;;;;;;;;;;;;;;;;;4940939;28;19921;-89
2023/08/22 00:50:24;;;;;;;;;;;;;;;;;;4931182;28;19962;-88
2023/08/22 00:52:50;;;;;;;;;;;;;;;;;;4935070;29;19926;-90
2023/08/22 00:55:17;;;;;;;;;;;;;;;;;;4932595;28;19953;-89
2023/08/22 00:57:43;;;;;;;;;;;;;;;;;;4929385;29;19922;-88
2023/08/22 01:00:10;;;;;;;;;;;;;;;;;;4924085;28;19918;-89
2023/08/22 01:02:39;;;;;;;;;;;;;;;;;;4930338;28;20333;-88
2023/08/22 01:05:05;;;;;;;;;;;;;;;;;;4931190;29;19998;-89
2023/08/22 01:07:31;;;;;;;;;;;;;;;;;;4928529;29;19914;-89
2023/08/22 01:09:57;;;;;;;;;;;;;;;;;;4931467;28;19941;-89
2023/08/22 01:12:23;;;;;;;;;;;;;;;;;;4933817;28;19914;-90
2023/08/22 01:14:50;;;;;;;;;;;;;;;;;;4932044;28;19918;-89
2023/08/22 01:17:16;;;;;;;;;;;;;;;;;;4929779;28;20010;-91
2023/08/22 01:19:41;;;;;;;;;;;;;;;;;;4932674;29;19957;-90
2023/08/22 01:22:07;;;;;;;;;;;;;;;;;;4933549;29;19910;-89
2023/08/22 01:24:33;;;;;;;;;;;;;;;;;;4950489;28;19922;-90
2023/08/22 01:26:59;;;;;;;;;;;;;;;;;;4947554;28;19911;-89
2023/08/22 01:29:25;;;;;;;;;;;;;;;;;;4933490;28;19914;-90
2023/08/22 01:31:54;;;;;;;;;;;;;;;;;;4936014;29;19915;-91
2023/08/22 01:34:21;;;;;;;;;;;;;;;;;;4936344;28;19929;-90
2023/08/22 01:36:47;;;;;;;;;;;;;;;;;;4939165;28;19910;-89
2023/08/22 01:39:13;;;;;;;;;;;;;;;;;;4934910;29;19919;-90
2023/08/22 01:41:39;;;;;;;;;;;;;;;;;;4937484;28;20285;-90
2023/08/22 01:44:05;;;;;;;;;;;;;;;;;;4919869;29;19921;-89
2023/08/22 01:46:31;;;;;;;;;;;;;;;;;;4924690;29;20001;-89
2023/08/22 01:48:57;;;;;;;;;;;;;;;;;;4919431;29;19922;-89
2023/08/22 01:51:23;;;;;;;;;;;;;;;;;;4924009;29;19910;-89
2023/08/22 01:53:49;;;;;;;;;;;;;;;;;;4935375;29;19914;-90
2023/08/22 01:56:15;;;;;;;;;;;;;;;;;;4939997;29;19914;-90
2023/08/22 01:58:41;;;;;;;;;;;;;;;;;;4920342;29;19914;-91
2023/08/22 02:01:07;;;;;;;;;;;;;;;;;;4909792;29;19919;-90
2023/08/22 02:03:33;;;;;;;;;;;;;;;;;;4930033;29;19941;-91
2023/08/22 02:05:59;;;;;;;;;;;;;;;;;;4920536;29;19929;-89
2023/08/22 02:08:25;;;;;;;;;;;;;;;;;;4911279;29;20371;-89
2023/08/22 02:10:54;;;;;;;;;;;;;;;;;;4924291;29;20264;-89
2023/08/22 02:13:20;;;;;;;;;;;;;;;;;;4909091;29;19922;-90
2023/08/22 02:15:45;;;;;;;;;;;;;;;;;;4912975;29;19915;-89
2023/08/22 02:18:14;;;;;;;;;;;;;;;;;;4917054;29;19918;-90
2023/08/22 02:20:41;;;;;;;;;;;;;;;;;;4913991;29;19918;-90
2023/08/22 02:23:06;;;;;;;;;;;;;;;;;;4917748;29;19914;-91
2023/08/22 02:25:56;;;;;;;;;;;;;;;;;;4919770;29;20446;-90
2023/08/22 02:28:19;;;;;;;;;;;;;;;;;;4929522;29;19919;-92
2023/08/22 02:30:48;;;;;;;;;;;;;;;;;;4910017;29;19922;-92
2023/08/22 02:33:14;;;;;;;;;;;;;;;;;;4918665;29;19922;-91
2023/08/22 02:35:40;;;;;;;;;;;;;;;;;;4918222;29;20326;-91
2023/08/22 02:38:06;;;;;;;;;;;;;;;;;;4919456;29;19989;-90
2023/08/22 02:40:32;;;;;;;;;;;;;;;;;;4918845;29;19911;-91
2023/08/22 02:42:58;;;;;;;;;;;;;;;;;;4935320;28;19922;-91
2023/08/22 02:45:24;;;;;;;;;;;;;;;;;;4915161;29;20025;-91
2023/08/22 02:47:50;;;;;;;;;;;;;;;;;;4916070;29;19919;-91
2023/08/22 02:50:16;;;;;;;;;;;;;;;;;;4911206;29;19915;-91
2023/08/22 02:52:42;;;;;;;;;;;;;;;;;;4912218;29;20399;-90
2023/08/22 02:55:08;;;;;;;;;;;;;;;;;;4911556;29;19974;-92
2023/08/22 02:57:35;;;;;;;;;;;;;;;;;;4917900;29;19911;-92
2023/08/22 03:00:01;;;;;;;;;;;;;;;;;;4914829;29;19966;-91
2023/08/22 03:02:27;;;;;;;;;;;;;;;;;;4915719;29;19911;-90
2023/08/22 03:04:53;;;;;;;;;;;;;;;;;;4919233;29;20061;-91
2023/08/22 03:07:19;;;;;;;;;;;;;;;;;;4911983;29;20009;-92
2023/08/22 03:09:46;;;;;;;;;;;;;;;;;;4917605;29;19914;-91
2023/08/22 03:12:12;;;;;;;;;;;;;;;;;;4914602;29;19918;-92
2023/08/22 03:14:38;;;;;;;;;;;;;;;;;;4915130;29;19916;-92
2023/08/22 03:17:03;;;;;;;;;;;;;;;;;;4933478;29;19917;-93
2023/08/22 03:19:29;;;;;;;;;;;;;;;;;;4919863;29;19914;-91
2023/08/22 03:21:55;;;;;;;;;;;;;;;;;;4916603;29;19994;-91
2023/08/22 03:24:21;;;;;;;;;;;;;;;;;;4914659;29;19925;-91
2023/08/22 03:26:47;;;;;;;;;;;;;;;;;;4917966;29;20017;-91
2023/08/22 03:29:14;;;;;;;;;;;;;;;;;;4916551;29;19928;-92
2023/08/22 03:31:43;;;;;;;;;;;;;;;;;;4917481;29;19911;-91
2023/08/22 03:34:09;;;;;;;;;;;;;;;;;;4931804;29;19922;-92
2023/08/22 03:36:35;;;;;;;;;;;;;;;;;;4921752;29;20022;-92
2023/08/22 03:39:04;;;;;;;;;;;;;;;;;;4917444;29;19942;-91
2023/08/22 03:41:30;;;;;;;;;;;;;;;;;;4929547;28;21043;-92
2023/08/22 03:43:56;;;;;;;;;;;;;;;;;;4937025;28;19922;-92
2023/08/22 03:46:22;;;;;;;;;;;;;;;;;;4938818;29;19911;-92
2023/08/22 03:48:48;;;;;;;;;;;;;;;;;;4937884;28;19922;-91
2023/08/22 03:51:14;;;;;;;;;;;;;;;;;;4934707;29;19911;-92
2023/08/22 03:53:53;;;;;;;;;;;;;;;;;;4943809;28;19928;-91
2023/08/22 03:56:19;;;;;;;;;;;;;;;;;;4943611;28;19910;-92
2023/08/22 03:58:45;;;;;;;;;;;;;;;;;;4941946;29;19958;-92
2023/08/22 04:01:11;;;;;;;;;;;;;;;;;;4942214;28;19918;-92
2023/08/22 04:03:37;;;;;;;;;;;;;;;;;;4941878;28;19921;-92
2023/08/22 04:06:03;;;;;;;;;;;;;;;;;;4939885;29;19925;-89
2023/08/22 04:08:29;;;;;;;;;;;;;;;;;;4938350;29;20429;-90
2023/08/22 04:10:56;;;;;;;;;;;;;;;;;;4934737;28;19951;-92
2023/08/22 04:13:22;;;;;;;;;;;;;;;;;;4951844;28;19915;-90
2023/08/22 04:15:48;;;;;;;;;;;;;;;;;;4935121;29;20031;-90
2023/08/22 04:18:14;;;;;;;;;;;;;;;;;;4936754;28;20390;-90
2023/08/22 04:20:42;;;;;;;;;;;;;;;;;;4936235;29;19910;-90
2023/08/22 04:23:08;;;;;;;;;;;;;;;;;;4934843;28;20393;-90
2023/08/22 04:25:35;;;;;;;;;;;;;;;;;;4938903;29;19927;-90
2023/08/22 04:28:01;;;;;;;;;;;;;;;;;;4939284;28;19911;-88
2023/08/22 04:30:26;;;;;;;;;;;;;;;;;;4945143;28;19977;-89
2023/08/22 04:32:52;;;;;;;;;;;;;;;;;;4936124;28;20434;-88
2023/08/22 04:35:18;;;;;;;;;;;;;;;;;;4954178;28;19980;-89
2023/08/22 04:37:44;;;;;;;;;;;;;;;;;;4931830;28;19915;-88
2023/08/22 04:40:14;;;;;;;;;;;;;;;;;;4939513;29;20530;-88
2023/08/22 04:42:39;;;;;;;;;;;;;;;;;;4937068;28;19922;-88
2023/08/22 04:45:05;;;;;;;;;;;;;;;;;;4927849;28;19921;-89
2023/08/22 04:47:31;;;;;;;;;;;;;;;;;;4925453;28;20200;-90
2023/08/22 04:49:57;;;;;;;;;;;;;;;;;;4925174;28;19922;-89
2023/08/22 04:52:23;;;;;;;;;;;;;;;;;;4930759;28;19973;-89
2023/08/22 04:54:49;;;;;;;;;;;;;;;;;;4931203;28;19918;-88
2023/08/22 04:57:15;;;;;;;;;;;;;;;;;;4944884;28;19914;-89
2023/08/22 04:59:41;;;;;;;;;;;;;;;;;;4929132;28;20405;-89
2023/08/22 05:02:07;;;;;;;;;;;;;;;;;;4929032;28;19957;-89
2023/08/22 05:04:32;;;;;;;;;;;;;;;;;;4925499;28;19921;-89
2023/08/22 05:06:59;;;;;;;;;;;;;;;;;;4946042;28;19914;-89
2023/08/22 05:09:25;;;;;;;;;;;;;;;;;;4933521;28;19950;-88
2023/08/22 05:11:51;;;;;;;;;;;;;;;;;;4931068;28;20286;-87
2023/08/22 05:14:23;;;;;;;;;;;;;;;;;;4928291;28;19932;-88
2023/08/22 05:16:51;;;;;;;;;;;;;;;;;;4929355;28;19910;-87
2023/08/22 05:19:17;;;;;;;;;;;;;;;;;;4937362;28;20294;-87
2023/08/22 05:21:42;;;;;;;;;;;;;;;;;;4928684;29;19914;-88
2023/08/22 05:24:08;;;;;;;;;;;;;;;;;;4929967;28;19910;-88
2023/08/22 05:26:34;;;;;;;;;;;;;;;;;;4944916;28;20457;-89
2023/08/22 05:29:03;;;;;;;;;;;;;;;;;;4930777;28;20009;-87
2023/08/22 05:31:29;;;;;;;;;;;;;;;;;;4930180;28;19914;-88
2023/08/22 05:33:55;;;;;;;;;;;;;;;;;;4931300;28;20413;-88
2023/08/22 05:36:21;;;;;;;;;;;;;;;;;;4921281;29;20087;-88
2023/08/22 05:38:47;;;;;;;;;;;;;;;;;;4926107;29;20330;-88
2023/08/22 05:41:14;;;;;;;;;;;;;;;;;;4927894;29;19910;-88
2023/08/22 05:43:40;;;;;;;;;;;;;;;;;;4925585;28;20418;-87
2023/08/22 05:46:06;;;;;;;;;;;;;;;;;;4945134;28;20437;-88
2023/08/22 05:48:32;;;;;;;;;;;;;;;;;;4935014;28;19969;-90
2023/08/22 05:50:58;;;;;;;;;;;;;;;;;;4952737;28;19973;-90
2023/08/22 05:53:24;;;;;;;;;;;;;;;;;;4938362;28;20009;-90
2023/08/22 05:55:50;;;;;;;;;;;;;;;;;;4948526;28;19967;-88
2023/08/22 05:58:16;;;;;;;;;;;;;;;;;;4931336;28;20429;-88
2023/08/22 06:00:42;;;;;;;;;;;;;;;;;;4932999;29;19921;-87
2023/08/22 06:03:09;;;;;;;;;;;;;;;;;;4937881;28;19937;-88
2023/08/22 06:05:35;;;;;;;;;;;;;;;;;;4938404;29;19921;-88
2023/08/22 06:08:01;;;;;;;;;;;;;;;;;;4933520;28;19918;-88
2023/08/22 06:10:27;;;;;;;;;;;;;;;;;;4937466;28;19930;-88
2023/08/22 06:12:53;;;;;;;;;;;;;;;;;;4934793;29;20348;-88
2023/08/22 06:15:19;;;;;;;;;;;;;;;;;;4955023;28;19918;-88
2023/08/22 06:17:45;;;;;;;;;;;;;;;;;;4940793;29;19946;-87
2023/08/22 06:20:11;;;;;;;;;;;;;;;;;;4945733;29;19914;-88
2023/08/22 06:22:37;;;;;;;;;;;;;;;;;;4941740;28;19911;-88
2023/08/22 06:25:06;;;;;;;;;;;;;;;;;;4936901;29;19914;-88
2023/08/22 06:27:32;;;;;;;;;;;;;;;;;;4938667;28;19911;-88
2023/08/22 06:29:58;;;;;;;;;;;;;;;;;;4929847;28;19919;-89
2023/08/22 06:32:24;;;;;;;;;;;;;;;;;;4930782;29;19918;-88
2023/08/22 06:34:53;;;;;;;;;;;;;;;;;;4945766;28;19918;-88
2023/08/22 06:37:19;;;;;;;;;;;;;;;;;;4927236;28;19914;-88
2023/08/22 06:39:45;;;;;;;;;;;;;;;;;;4926645;28;19926;-89
2023/08/22 06:42:11;;;;;;;;;;;;;;;;;;4925159;28;19918;-89
2023/08/22 06:44:37;;;;;;;;;;;;;;;;;;4947517;28;19945;-88
2023/08/22 06:47:03;;;;;;;;;;;;;;;;;;4929618;28;19921;-89
2023/08/22 06:49:29;;;;;;;;;;;;;;;;;;4928676;28;20239;-89
2023/08/22 06:51:55;;;;;;;;;;;;;;;;;;4929792;28;20334;-88
2023/08/22 06:54:21;;;;;;;;;;;;;;;;;;4921205;29;20045;-88
2023/08/22 06:56:47;;;;;;;;;;;;;;;;;;4928381;28;19961;-89
2023/08/22 06:59:13;;;;;;;;;;;;;;;;;;4925618;28;25300;-89
2023/08/22 07:01:39;;;;;;;;;;;;;;;;;;4941080;28;20375;-88
2023/08/22 07:04:05;;;;;;;;;;;;;;;;;;4925908;29;20219;-87
2023/08/22 07:06:31;;;;;;;;;;;;;;;;;;4939064;28;19973;-89
2023/08/22 07:09:00;;;;;;;;;;;;;;;;;;4935542;28;19915;-89
2023/08/22 07:11:26;;;;;;;;;;;;;;;;;;4941284;28;20021;-89
2023/08/22 07:13:52;;;;;;;;;;;;;;;;;;4935447;28;19914;-88
2023/08/22 07:16:18;;;;;;;;;;;;;;;;;;4935874;29;19969;-88
2023/08/22 07:18:44;;;;;;;;;;;;;;;;;;4954130;28;19911;-88
2023/08/22 07:21:10;;;;;;;;;;;;;;;;;;4932304;29;20137;-88
2023/08/22 07:23:36;;;;;;;;;;;;;;;;;;4953555;28;19914;-88
2023/08/22 07:26:02;;;;;;;;;;;;;;;;;;4936124;28;20378;-90
2023/08/22 07:28:28;;;;;;;;;;;;;;;;;;4952577;28;19949;-89
2023/08/22 07:30:55;;;;;;;;;;;;;;;;;;4940327;29;19914;-89
2023/08/22 07:33:20;;;;;;;;;;;;;;;;;;4939710;28;20144;-89
2023/08/22 07:35:46;;;;;;;;;;;;;;;;;;4933376;29;19934;-88
2023/08/22 07:38:16;;;;;;;;;;;;;;;;;;4936742;28;20116;-89
2023/08/22 07:40:42;;;;;;;;;;;;;;;;;;4937049;28;20423;-88
2023/08/22 07:43:08;;;;;;;;;;;;;;;;;;4937312;28;19925;-88
2023/08/22 07:45:34;;;;;;;;;;;;;;;;;;4935534;28;20009;-87
2023/08/22 07:48:00;;;;;;;;;;;;;;;;;;4945242;29;20120;-88
2023/08/22 07:50:26;;;;;;;;;;;;;;;;;;4930028;29;19907;-87
2023/08/22 07:52:51;;;;;;;;;;;;;;;;;;4935136;28;19950;-88
2023/08/22 07:55:17;;;;;;;;;;;;;;;;;;4934556;28;20167;-89
2023/08/22 07:57:43;;;;;;;;;;;;;;;;;;4937615;29;19910;-87
2023/08/22 08:00:11;;;;;;;;;;;;;;;;;;4951538;28;19930;-88
2023/08/22 08:02:37;;;;;;;;;;;;;;;;;;4941269;28;20679;-87
2023/08/22 08:05:07;;;;;;;;;;;;;;;;;;4947410;28;19917;-87
2023/08/22 08:07:34;;;;;;;;;;;;;;;;;;4933834;28;19945;-87
2023/08/22 08:10:00;;;;;;;;;;;;;;;;;;4931727;28;20317;-87
2023/08/22 08:12:26;;;;;;;;;;;;;;;;;;4933888;28;19914;-88
2023/08/22 08:14:52;;;;;;;;;;;;;;;;;;4947257;28;20132;-87
2023/08/22 08:17:18;;;;;;;;;;;;;;;;;;4929270;28;20390;-87
2023/08/22 08:19:44;;;;;;;;;;;;;;;;;;4928538;28;20015;-88
2023/08/22 08:22:13;;;;;;;;;;;;;;;;;;4934118;29;20422;-88
2023/08/22 08:24:39;;;;;;;;;;;;;;;;;;4927658;28;19914;-89
2023/08/22 08:27:05;;;;;;;;;;;;;;;;;;4931717;29;19917;-89
2023/08/22 08:29:31;;;;;;;;;;;;;;;;;;4937120;28;19954;-89
2023/08/22 08:31:57;;;;;;;;;;;;;;;;;;4934177;28;20359;-89
2023/08/22 08:34:23;;;;;;;;;;;;;;;;;;4933986;28;19918;-88
2023/08/22 08:36:49;;;;;;;;;;;;;;;;;;4937778;29;19957;-89
2023/08/22 08:39:15;;;;;;;;;;;;;;;;;;4949082;28;19917;-88
2023/08/22 08:41:41;;;;;;;;;;;;;;;;;;4935039;29;19961;-89
2023/08/22 08:44:10;;;;;;;;;;;;;;;;;;4931561;28;19921;-89
2023/08/22 08:46:36;;;;;;;;;;;;;;;;;;4935297;29;19926;-88
2023/08/22 08:49:02;;;;;;;;;;;;;;;;;;4930596;29;19990;-88
2023/08/22 08:51:28;;;;;;;;;;;;;;;;;;4947228;28;19938;-87
2023/08/22 08:53:54;;;;;;;;;;;;;;;;;;4932428;28;19972;-88
2023/08/22 08:56:20;;;;;;;;;;;;;;;;;;4935227;28;20414;-89
2023/08/22 08:58:46;;;;;;;;;;;;;;;;;;4935100;29;19910;-89
2023/08/22 09:01:12;;;;;;;;;;;;;;;;;;4951398;28;20005;-88
2023/08/22 09:03:38;;;;;;;;;;;;;;;;;;4936085;29;20438;-88
2023/08/22 09:06:04;;;;;;;;;;;;;;;;;;4937319;29;19914;-88
2023/08/22 09:08:30;;;;;;;;;;;;;;;;;;4933734;29;19938;-88
2023/08/22 09:10:56;;;;;;;;;;;;;;;;;;4934427;28;19910;-88
2023/08/22 09:13:21;;;;;;;;;;;;;;;;;;4935614;29;19919;-88
2023/08/22 09:15:47;;;;;;;;;;;;;;;;;;4934998;29;19914;-88
2023/08/22 09:18:14;;;;;;;;;;;;;;;;;;4937232;29;19910;-88
2023/08/22 09:20:45;;;;;;;;;;;;;;;;;;4946420;28;20011;-88
2023/08/22 09:23:11;;;;;;;;;;;;;;;;;;4934171;28;19919;-88
2023/08/22 09:25:37;;;;;;;;;;;;;;;;;;4937067;29;19979;-88
2023/08/22 09:28:03;;;;;;;;;;;;;;;;;;4932622;29;19938;-89
2023/08/22 09:30:29;;;;;;;;;;;;;;;;;;4931479;29;19942;-88
2023/08/22 09:32:55;;;;;;;;;;;;;;;;;;4927893;28;19982;-89
2023/08/22 09:35:21;;;;;;;;;;;;;;;;;;4934223;29;20905;-89
2023/08/22 09:37:47;;;;;;;;;;;;;;;;;;4933424;28;20052;-89
2023/08/22 09:40:16;;;;;;;;;;;;;;;;;;4932281;29;19911;-88
2023/08/22 09:42:42;;;;;;;;;;;;;;;;;;4941049;28;20008;-89
2023/08/22 09:45:08;;;;;;;;;;;;;;;;;;4923953;29;19957;-88
2023/08/22 09:47:34;;;;;;;;;;;;;;;;;;4939728;29;19938;-88
2023/08/22 09:50:00;;;;;;;;;;;;;;;;;;4933382;29;19923;-89
2023/08/22 09:52:26;;;;;;;;;;;;;;;;;;4923247;29;19918;-87
2023/08/22 09:54:52;;;;;;;;;;;;;;;;;;4913522;29;20295;-88
2023/08/22 09:57:18;;;;;;;;;;;;;;;;;;4920094;29;19911;-89
2023/08/22 09:59:45;;;;;;;;;;;;;;;;;;4918098;29;19911;-88
2023/08/22 10:02:14;;;;;;;;;;;;;;;;;;4914531;29;19942;-88
2023/08/22 10:04:40;;;;;;;;;;;;;;;;;;4908760;29;19910;-89
2023/08/22 10:07:08;;;;;;;;;;;;;;;;;;4922587;29;19911;-89
2023/08/22 10:09:34;;;;;;;;;;;;;;;;;;4925739;29;19915;-89
2023/08/22 10:12:00;;;;;;;;;;;;;;;;;;4916864;29;19958;-88
2023/08/22 10:14:26;;;;;;;;;;;;;;;;;;4913951;29;20592;-88
2023/08/22 10:16:52;;;;;;;;;;;;;;;;;;4919110;29;19959;-88
2023/08/22 10:19:18;;;;;;;;;;;;;;;;;;4916734;29;19915;-88
2023/08/22 10:21:44;;;;;;;;;;;;;;;;;;4916105;29;19961;-89
2023/08/22 10:24:09;;;;;;;;;;;;;;;;;;4921062;29;19914;-87
2023/08/22 10:26:35;;;;;;;;;;;;;;;;;;4932250;29;19914;-88
2023/08/22 10:29:02;;;;;;;;;;;;;;;;;;4917291;29;20420;-88
2023/08/22 10:31:28;;;;;;;;;;;;;;;;;;4924119;29;19919;-88
2023/08/22 10:33:53;;;;;;;;;;;;;;;;;;4916572;29;19935;-88
2023/08/22 10:36:23;;;;;;;;;;;;;;;;;;4912300;29;19939;-90
2023/08/22 10:38:49;;;;;;;;;;;;;;;;;;4915167;29;19919;-88
2023/08/22 10:41:15;;;;;;;;;;;;;;;;;;4921275;29;19974;-90
2023/08/22 10:43:41;;;;;;;;;;;;;;;;;;4927713;28;20386;-90
2023/08/22 10:46:07;;;;;;;;;;;;;;;;;;4940760;29;19915;-90
2023/08/22 10:48:37;;;;;;;;;;;;;;;;;;4938175;28;19911;-91
2023/08/22 10:51:06;;;;;;;;;;;;;;;;;;4938913;29;19925;-90
2023/08/22 10:53:32;;;;;;;;;;;;;;;;;;4935453;28;19922;-91
2023/08/22 10:55:58;;;;;;;;;;;;;;;;;;4947790;28;20280;-90
2023/08/22 10:58:24;;;;;;;;;;;;;;;;;;4937486;28;19933;-90
2023/08/22 11:00:50;;;;;;;;;;;;;;;;;;4938930;29;20279;-90
2023/08/22 11:03:16;;;;;;;;;;;;;;;;;;4937465;28;19914;-90
2023/08/22 11:05:42;;;;;;;;;;;;;;;;;;4936984;28;19973;-90
2023/08/22 11:08:08;;;;;;;;;;;;;;;;;;4935927;29;20307;-90
2023/08/22 11:10:34;;;;;;;;;;;;;;;;;;4932695;28;20540;-89
2023/08/22 11:13:00;;;;;;;;;;;;;;;;;;4930413;29;19918;-89
2023/08/22 11:15:32;;;;;;;;;;;;;;;;;;4952531;28;19914;-89
2023/08/22 11:18:01;;;;;;;;;;;;;;;;;;4939313;29;19933;-90
2023/08/22 11:20:27;;;;;;;;;;;;;;;;;;4931354;29;19914;-89
2023/08/22 11:22:53;;;;;;;;;;;;;;;;;;4935681;29;19964;-90
2023/08/22 11:25:19;;;;;;;;;;;;;;;;;;4938239;29;19911;-90
2023/08/22 11:27:45;;;;;;;;;;;;;;;;;;4937065;28;19907;-89
2023/08/22 11:30:12;;;;;;;;;;;;;;;;;;4942858;28;20006;-89
2023/08/22 11:32:38;;;;;;;;;;;;;;;;;;4938977;28;19989;-90
2023/08/22 11:35:04;;;;;;;;;;;;;;;;;;4940278;28;19910;-90
2023/08/22 11:37:30;;;;;;;;;;;;;;;;;;4937072;28;19961;-89
2023/08/22 11:39:57;;;;;;;;;;;;;;;;;;4936930;29;19919;-90
2023/08/22 11:42:24;;;;;;;;;;;;;;;;;;4953824;28;19938;-89
2023/08/22 11:44:50;;;;;;;;;;;;;;;;;;4934097;28;19922;-89
2023/08/22 11:47:16;;;;;;;;;;;;;;;;;;4937327;28;20154;-88
2023/08/22 11:49:42;;;;;;;;;;;;;;;;;;4940904;28;20022;-90
2023/08/22 11:52:08;;;;;;;;;;;;;;;;;;4934402;28;19914;-88
2023/08/22 11:54:34;;;;;;;;;;;;;;;;;;4934492;29;19985;-89
2023/08/22 11:57:00;;;;;;;;;;;;;;;;;;4931066;28;20803;-88
2023/08/22 11:59:26;;;;;;;;;;;;;;;;;;4938674;28;19914;-89
2023/08/22 12:01:52;;;;;;;;;;;;;;;;;;4930852;28;19917;-89
2023/08/22 12:04:18;;;;;;;;;;;;;;;;;;4935771;29;20002;-87
2023/08/22 12:06:44;;;;;;;;;;;;;;;;;;4933285;28;19925;-88
2023/08/22 12:09:10;;;;;;;;;;;;;;;;;;4932513;29;19921;-88
2023/08/22 12:11:36;;;;;;;;;;;;;;;;;;4935083;28;19978;-89
2023/08/22 12:14:02;;;;;;;;;;;;;;;;;;4936149;28;19968;-87
2023/08/22 12:16:28;;;;;;;;;;;;;;;;;;4935460;29;19986;-89
2023/08/22 12:18:54;;;;;;;;;;;;;;;;;;4937046;28;19918;-88
2023/08/22 12:21:20;;;;;;;;;;;;;;;;;;4938560;29;19933;-89
2023/08/22 12:23:46;;;;;;;;;;;;;;;;;;4937704;28;19910;-89
2023/08/22 12:26:12;;;;;;;;;;;;;;;;;;4925591;29;20005;-89
2023/08/22 12:28:38;;;;;;;;;;;;;;;;;;4944593;28;20987;-89
2023/08/22 12:31:04;;;;;;;;;;;;;;;;;;4927366;29;19917;-89
2023/08/22 12:33:29;;;;;;;;;;;;;;;;;;4931505;28;19918;-88
2023/08/22 12:36:14;;;;;;;;;;;;;;;;;;4934834;29;19913;-88
2023/08/22 12:38:40;;;;;;;;;;;;;;;;;;4935238;28;20255;-88
2023/08/22 12:41:07;;;;;;;;;;;;;;;;;;4936213;29;19914;-88
2023/08/22 12:43:33;;;;;;;;;;;;;;;;;;4934431;28;20861;-90
2023/08/22 12:45:59;;;;;;;;;;;;;;;;;;4936703;28;19926;-89
2023/08/22 12:48:25;;;;;;;;;;;;;;;;;;4929598;29;20338;-90
2023/08/22 12:50:51;;;;;;;;;;;;;;;;;;4934194;28;20013;-89
2023/08/22 12:53:17;;;;;;;;;;;;;;;;;;4935972;28;19997;-89
2023/08/22 12:55:44;;;;;;;;;;;;;;;;;;4936340;28;19945;-89
2023/08/22 12:58:16;;;;;;;;;;;;;;;;;;4935182;29;19920;-87
2023/08/22 13:00:42;;;;;;;;;;;;;;;;;;4933318;28;20486;-88
2023/08/22 13:03:08;;;;;;;;;;;;;;;;;;4936375;29;20002;-89
2023/08/22 13:05:34;;;;;;;;;;;;;;;;;;4933303;29;19911;-87
2023/08/22 13:08:00;;;;;;;;;;;;;;;;;;4930965;29;19910;-88
2023/08/22 13:10:26;;;;;;;;;;;;;;;;;;4929199;29;19910;-86
2023/08/22 13:12:52;;;;;;;;;;;;;;;;;;4929575;28;19945;-88
2023/08/22 13:15:18;;;;;;;;;;;;;;;;;;4931142;28;19914;-89
2023/08/22 13:17:44;;;;;;;;;;;;;;;;;;4929916;28;20197;-88
2023/08/22 13:20:10;;;;;;;;;;;;;;;;;;4940446;28;19915;-88
2023/08/22 13:22:36;;;;;;;;;;;;;;;;;;4935760;29;20351;-87
2023/08/22 13:25:02;;;;;;;;;;;;;;;;;;4931793;28;19929;-89
2023/08/22 13:27:29;;;;;;;;;;;;;;;;;;4931704;29;20302;-87
2023/08/22 13:29:55;;;;;;;;;;;;;;;;;;4933194;28;20009;-87
2023/08/22 13:32:21;;;;;;;;;;;;;;;;;;4932004;29;19906;-88
2023/08/22 13:34:47;;;;;;;;;;;;;;;;;;4937096;28;19911;-89
2023/08/22 13:37:13;;;;;;;;;;;;;;;;;;4937546;29;19926;-89
2023/08/22 13:39:39;;;;;;;;;;;;;;;;;;4934382;28;20101;-87
2023/08/22 13:42:05;;;;;;;;;;;;;;;;;;4932725;28;19910;-87
2023/08/22 13:44:30;;;;;;;;;;;;;;;;;;4940026;28;20213;-87
2023/08/22 13:46:57;;;;;;;;;;;;;;;;;;4953160;28;19957;-86
2023/08/22 13:49:25;;;;;;;;;;;;;;;;;;4935268;29;19929;-87
2023/08/22 13:51:51;;;;;;;;;;;;;;;;;;4932768;28;19915;-89
2023/08/22 13:54:20;;;;;;;;;;;;;;;;;;4934032;28;19961;-89
2023/08/22 13:56:46;;;;;;;;;;;;;;;;;;4934539;28;20390;-89
2023/08/22 13:59:12;;;;;;;;;;;;;;;;;;4950369;28;19925;-89
2023/08/22 14:01:38;;;;;;;;;;;;;;;;;;4934440;28;19914;-89
2023/08/22 14:04:04;;;;;;;;;;;;;;;;;;4950559;28;20562;-89
2023/08/22 14:06:30;;;;;;;;;;;;;;;;;;4937234;29;19911;-87
2023/08/22 14:08:55;;;;;;;;;;;;;;;;;;4930936;28;19926;-88
2023/08/22 14:11:21;;;;;;;;;;;;;;;;;;4963116;28;19907;-89
2023/08/22 14:13:48;;;;;;;;;;;;;;;;;;4949462;28;19903;-89
2023/08/22 14:16:14;;;;;;;;;;;;;;;;;;4952639;29;19914;-89
2023/08/22 14:18:39;;;;;;;;;;;;;;;;;;4945530;28;19974;-89
2023/08/22 14:21:05;;;;;;;;;;;;;;;;;;4953195;29;19913;-88
2023/08/22 14:23:31;;;;;;;;;;;;;;;;;;4950276;28;19914;-89
2023/08/22 14:25:57;;;;;;;;;;;;;;;;;;4949376;29;19917;-88
2023/08/22 14:28:23;;;;;;;;;;;;;;;;;;4949054;28;20121;-89
2023/08/22 14:30:49;;;;;;;;;;;;;;;;;;4945110;29;20087;-88
2023/08/22 14:33:15;;;;;;;;;;;;;;;;;;4949239;28;19922;-87
2023/08/22 14:35:41;;;;;;;;;;;;;;;;;;4940310;29;19911;-87
2023/08/22 14:38:07;;;;;;;;;;;;;;;;;;4947199;28;19910;-88
2023/08/22 14:40:33;;;;;;;;;;;;;;;;;;4945854;29;19918;-87
2023/08/22 14:42:59;;;;;;;;;;;;;;;;;;4952656;28;19915;-88
2023/08/22 14:45:25;;;;;;;;;;;;;;;;;;4954835;28;19964;-89
2023/08/22 14:47:51;;;;;;;;;;;;;;;;;;4955127;28;20065;-89
2023/08/22 14:50:17;;;;;;;;;;;;;;;;;;4946939;28;19917;-89
2023/08/22 14:52:43;;;;;;;;;;;;;;;;;;4965387;28;19906;-89
2023/08/22 14:55:08;;;;;;;;;;;;;;;;;;4948657;28;19934;-89
2023/08/22 14:57:34;;;;;;;;;;;;;;;;;;4947415;29;19914;-88
2023/08/22 15:00:00;;;;;;;;;;;;;;;;;;4962529;28;19945;-90
2023/08/22 15:02:27;;;;;;;;;;;;;;;;;;4944488;28;19918;-88
2023/08/22 15:04:53;;;;;;;;;;;;;;;;;;4963627;28;20350;-88
2023/08/22 15:07:18;;;;;;;;;;;;;;;;;;4960439;28;19978;-87
2023/08/22 15:09:45;;;;;;;;;;;;;;;;;;4941705;29;19914;-87
2023/08/22 15:12:11;;;;;;;;;;;;;;;;;;4936919;28;19969;-88
2023/08/22 15:14:37;;;;;;;;;;;;;;;;;;4931969;29;19919;-88
2023/08/22 15:17:02;;;;;;;;;;;;;;;;;;4943810;28;19936;-88
2023/08/22 15:19:28;;;;;;;;;;;;;;;;;;4954664;28;19954;-88
2023/08/22 15:21:54;;;;;;;;;;;;;;;;;;4938624;29;19977;-87
2023/08/22 15:24:20;;;;;;;;;;;;;;;;;;4940129;28;20011;-87
2023/08/22 15:26:46;;;;;;;;;;;;;;;;;;4943940;29;19957;-86
2023/08/22 15:29:12;;;;;;;;;;;;;;;;;;4942149;28;19966;-88
2023/08/22 15:31:38;;;;;;;;;;;;;;;;;;4956813;28;19984;-89
2023/08/22 15:34:04;;;;;;;;;;;;;;;;;;4944895;28;19965;-88
2023/08/22 15:36:30;;;;;;;;;;;;;;;;;;4943595;28;20379;-87
2023/08/22 15:38:56;;;;;;;;;;;;;;;;;;4940452;28;19914;-88
2023/08/22 15:41:22;;;;;;;;;;;;;;;;;;4953103;28;19918;-87
2023/08/22 15:43:48;;;;;;;;;;;;;;;;;;4941203;28;20228;-87
2023/08/22 15:46:14;;;;;;;;;;;;;;;;;;4944735;28;19922;-87
2023/08/22 15:48:40;;;;;;;;;;;;;;;;;;4957095;28;19910;-87
2023/08/22 15:51:06;;;;;;;;;;;;;;;;;;4937930;28;19925;-88
2023/08/22 15:53:32;;;;;;;;;;;;;;;;;;4938233;28;19978;-88
2023/08/22 15:55:58;;;;;;;;;;;;;;;;;;4934523;29;20181;-87
2023/08/22 15:58:24;;;;;;;;;;;;;;;;;;4936188;28;19910;-87
2023/08/22 16:00:50;;;;;;;;;;;;;;;;;;4934425;29;19915;-87
2023/08/22 16:03:16;;;;;;;;;;;;;;;;;;4936398;28;19915;-88
2023/08/22 16:05:42;;;;;;;;;;;;;;;;;;4933359;28;19925;-88
2023/08/22 16:08:08;;;;;;;;;;;;;;;;;;4937270;28;19922;-87
2023/08/22 16:10:33;;;;;;;;;;;;;;;;;;4948065;28;19918;-87
2023/08/22 16:12:59;;;;;;;;;;;;;;;;;;4936819;29;20085;-87
2023/08/22 16:15:25;;;;;;;;;;;;;;;;;;4938059;28;20444;-88
2023/08/22 16:17:51;;;;;;;;;;;;;;;;;;4937003;29;19911;-88
2023/08/22 16:20:17;;;;;;;;;;;;;;;;;;4932759;29;19919;-88
2023/08/22 16:22:43;;;;;;;;;;;;;;;;;;4950643;28;19910;-87
2023/08/22 16:25:11;;;;;;;;;;;;;;;;;;4936457;29;19930;-88
2023/08/22 16:27:37;;;;;;;;;;;;;;;;;;4950696;28;20410;-89
2023/08/22 16:30:03;;;;;;;;;;;;;;;;;;4934630;29;19915;-89
2023/08/22 16:32:29;;;;;;;;;;;;;;;;;;4933949;28;19982;-89
2023/08/22 16:34:54;;;;;;;;;;;;;;;;;;4935289;29;19914;-88
2023/08/22 16:37:21;;;;;;;;;;;;;;;;;;4939569;29;20398;-88
2023/08/22 16:39:51;;;;;;;;;;;;;;;;;;4935196;28;19937;-88